createdAt,value
2022-10-12T00:02:09.099Z,98.10
2022-10-12T00:04:38.152Z,90.80
2022-10-12T00:07:07.026Z,93.20
2022-10-12T00:09:35.952Z,85.50
2022-10-12T00:12:05.007Z,88.40
2022-10-12T00:14:37.721Z,86.00
2022-10-12T00:17:06.675Z,98.90
2022-10-12T00:19:35.635Z,86.10
2022-10-12T00:22:04.827Z,82.50
2022-10-12T00:24:33.996Z,85.30
2022-10-12T00:27:02.894Z,83.40
2022-10-12T00:29:31.816Z,90.70
2022-10-12T00:32:01.784Z,86.20
2022-10-12T00:34:32.782Z,74.10
2022-10-12T00:37:01.803Z,85.60
2022-10-12T00:39:30.657Z,82.90
2022-10-12T00:42:02.172Z,80.30
2022-10-12T00:44:39.658Z,82.90
2022-10-12T00:47:35.631Z,83.70
2022-10-12T00:50:31.024Z,81.20
2022-10-12T00:53:23.289Z,74.90
2022-10-12T00:56:00.310Z,72.50
2022-10-12T00:58:33.070Z,85.90
2022-10-12T01:01:05.398Z,77.80
2022-10-12T01:03:35.879Z,80.60
2022-10-12T01:06:07.430Z,79.50
2022-10-12T01:08:37.855Z,74.60
2022-10-12T01:11:06.997Z,77.10
2022-10-12T01:13:36.600Z,69.30
2022-10-12T01:16:38.104Z,74.10
2022-10-12T01:19:24.423Z,71.20
2022-10-12T01:22:10.396Z,70.00
2022-10-12T01:25:09.108Z,69.70
2022-10-12T01:27:47.913Z,70.20
2022-10-12T01:30:38.890Z,81.40
2022-10-12T01:33:34.496Z,66.00
2022-10-12T01:36:37.324Z,64.10
2022-10-12T01:39:35.903Z,67.30
2022-10-12T01:42:14.161Z,77.90
2022-10-12T01:44:43.938Z,76.50
2022-10-12T01:47:15.505Z,73.30
2022-10-12T01:49:44.585Z,76.60
2022-10-12T01:52:17.234Z,75.80
2022-10-12T01:55:00.567Z,78.50
2022-10-12T01:57:47.849Z,74.40
2022-10-12T02:00:18.043Z,81.60
2022-10-12T02:03:07.352Z,77.60
2022-10-12T02:05:49.483Z,80.20
2022-10-12T02:08:48.087Z,80.40
2022-10-12T02:11:23.234Z,75.50
2022-10-12T02:14:16.889Z,69.50
2022-10-12T02:17:00.767Z,72.90
2022-10-12T02:19:36.808Z,73.30
2022-10-12T02:22:13.689Z,78.40
2022-10-12T02:24:50.443Z,81.60
2022-10-12T02:27:25.352Z,71.60
2022-10-12T02:29:54.766Z,73.00
2022-10-12T02:32:40.201Z,70.70
2022-10-12T02:35:22.771Z,64.90
2022-10-12T02:38:19.931Z,65.50
2022-10-12T02:40:57.097Z,65.80
2022-10-12T02:43:37.252Z,69.70
2022-10-12T02:46:10.243Z,66.10
2022-10-12T02:48:41.930Z,65.90
2022-10-12T02:51:31.267Z,67.40
2022-10-12T02:54:32.671Z,64.90
2022-10-12T02:57:24.345Z,66.30
2022-10-12T03:00:02.287Z,62.90
2022-10-12T03:02:41.569Z,62.10
2022-10-12T03:05:14.669Z,65.70
2022-10-12T03:07:45.994Z,66.50
2022-10-12T03:10:17.170Z,69.10
2022-10-12T03:12:50.228Z,68.20
2022-10-12T03:15:19.550Z,62.10
2022-10-12T03:17:53.800Z,64.50
2022-10-12T03:20:25.304Z,70.70
2022-10-12T03:22:55.517Z,68.80
2022-10-12T03:25:24.792Z,60.50
2022-10-12T03:27:55.867Z,65.80
2022-10-12T03:30:24.967Z,67.10
2022-10-12T03:32:53.953Z,67.30
2022-10-12T03:35:23.236Z,69.10
2022-10-12T03:37:54.932Z,73.10
2022-10-12T03:40:24.054Z,66.70
2022-10-12T03:42:54.193Z,58.90
2022-10-12T03:45:25.994Z,58.90
2022-10-12T03:48:01.041Z,69.30
2022-10-12T03:50:36.284Z,57.80
2022-10-12T03:53:06.495Z,62.40
2022-10-12T03:55:35.620Z,56.00
2022-10-12T03:58:04.517Z,60.10
2022-10-12T04:00:33.605Z,57.00
2022-10-12T04:03:03.268Z,59.90
2022-10-12T04:05:32.806Z,65.10
2022-10-12T04:08:02.365Z,80.90
2022-10-12T04:10:33.024Z,67.70
2022-10-12T04:13:01.930Z,70.20
2022-10-12T04:15:30.863Z,86.30
2022-10-12T04:18:00.047Z,114.40
2022-10-12T04:20:28.972Z,114.80
2022-10-12T04:23:01.060Z,108.20
2022-10-12T04:25:32.768Z,107.00
2022-10-12T04:28:01.804Z,101.80
2022-10-12T04:30:30.955Z,97.10
2022-10-12T04:33:00.093Z,85.70
2022-10-12T04:35:29.160Z,86.60
2022-10-12T04:37:59.456Z,80.60
2022-10-12T04:40:28.568Z,79.80
2022-10-12T04:42:57.559Z,87.00
2022-10-12T04:45:26.370Z,94.90
2022-10-12T04:47:55.254Z,87.80
2022-10-12T04:50:29.710Z,75.60
2022-10-12T04:52:59.075Z,91.30
2022-10-12T04:55:28.181Z,82.80
2022-10-12T04:57:57.258Z,89.30
2022-10-12T05:00:26.430Z,90.60
2022-10-12T05:02:56.439Z,90.60
2022-10-12T05:05:28.383Z,82.00
2022-10-12T05:08:02.701Z,85.40
2022-10-12T05:10:35.298Z,89.10
2022-10-12T05:13:07.666Z,92.80
2022-10-12T05:15:36.636Z,107.30
2022-10-12T05:18:05.834Z,118.90
2022-10-12T05:20:35.246Z,145.80
2022-10-12T05:23:05.021Z,139.80
2022-10-12T05:25:35.473Z,146.70
2022-10-12T05:28:04.951Z,144.60
2022-10-12T05:30:34.551Z,137.00
2022-10-12T05:33:03.906Z,139.90
2022-10-12T05:35:32.910Z,133.20
2022-10-12T05:38:01.733Z,128.90
2022-10-12T05:40:30.662Z,130.30
2022-10-12T05:42:59.623Z,146.10
2022-10-12T05:45:28.577Z,124.50
2022-10-12T05:48:01.865Z,117.60
2022-10-12T05:50:32.314Z,99.30
2022-10-12T05:53:01.241Z,93.80
2022-10-12T05:55:30.139Z,98.40
2022-10-12T05:57:59.519Z,98.30
2022-10-12T06:00:34.825Z,89.40
2022-10-12T06:03:08.702Z,80.50
2022-10-12T06:05:43.232Z,81.40
2022-10-12T06:08:13.038Z,80.60
2022-10-12T06:10:47.455Z,76.90
2022-10-12T06:13:18.111Z,85.00
2022-10-12T06:15:48.273Z,86.00
2022-10-12T06:18:18.849Z,80.90
2022-10-12T06:21:08.815Z,75.00
2022-10-12T06:23:41.793Z,72.90
2022-10-12T06:26:17.521Z,81.50
2022-10-12T06:28:48.068Z,73.70
2022-10-12T06:31:17.319Z,72.20
2022-10-12T06:33:51.122Z,75.20
2022-10-12T06:36:20.910Z,71.60
2022-10-12T06:38:49.921Z,77.00
2022-10-12T06:41:21.307Z,72.10
2022-10-12T06:43:50.309Z,74.40
2022-10-12T06:46:28.130Z,76.80
2022-10-12T06:49:11.553Z,81.00
2022-10-12T06:51:45.247Z,70.70
2022-10-12T06:54:17.332Z,68.30
2022-10-12T06:57:23.301Z,70.80
2022-10-12T06:59:57.128Z,66.70
2022-10-12T07:02:26.422Z,121.50
2022-10-12T07:04:55.741Z,72.30
2022-10-12T07:07:24.907Z,67.60
2022-10-12T07:09:53.802Z,70.10
2022-10-12T07:12:22.640Z,66.90
2022-10-12T07:14:51.598Z,65.60
2022-10-12T07:17:22.600Z,54.40
2022-10-12T07:19:51.360Z,66.20
2022-10-12T07:22:20.212Z,61.30
2022-10-12T07:24:51.704Z,69.50
2022-10-12T07:27:21.722Z,64.60
2022-10-12T07:29:54.119Z,65.70
2022-10-12T07:32:23.287Z,62.10
2022-10-12T07:34:55.137Z,69.70
2022-10-12T07:39:57.507Z,59.10
2022-10-12T07:42:26.810Z,65.70
2022-10-12T07:44:56.189Z,64.20
2022-10-12T07:47:25.100Z,62.40
2022-10-12T07:49:54.103Z,60.20
2022-10-12T07:52:32.616Z,53.70
2022-10-12T07:55:13.566Z,55.90
2022-10-12T07:57:50.813Z,52.50
2022-10-12T08:00:23.452Z,47.40
2022-10-12T08:03:01.156Z,46.70
2022-10-12T08:05:43.938Z,46.30
2022-10-12T08:08:27.387Z,39.40
2022-10-12T08:11:06.808Z,42.70
2022-10-12T08:13:53.493Z,48.10
2022-10-12T08:16:35.812Z,47.40
2022-10-12T08:19:12.105Z,46.80
2022-10-12T08:21:42.962Z,42.70
2022-10-12T08:24:35.716Z,45.70
2022-10-12T08:27:17.563Z,36.80
2022-10-12T08:29:58.945Z,38.00
2022-10-12T08:32:34.886Z,34.70
2022-10-12T08:35:47.844Z,37.30
2022-10-12T08:38:26.682Z,31.30
2022-10-12T08:41:42.023Z,35.00
2022-10-12T08:44:28.064Z,37.90
2022-10-12T08:47:22.028Z,35.40
2022-10-12T08:52:49.207Z,33.20
2022-10-12T08:55:53.624Z,29.80
2022-10-12T08:58:35.724Z,22.60
2022-10-12T09:01:37.451Z,30.00
2022-10-12T09:05:02.774Z,33.60
2022-10-12T09:07:39.770Z,27.00
2022-10-12T09:10:45.848Z,29.20
2022-10-12T09:13:42.882Z,23.30
2022-10-12T09:16:27.740Z,22.50
2022-10-12T09:19:13.475Z,18.00
2022-10-12T09:21:44.662Z,18.40
2022-10-12T09:24:27.855Z,23.20
2022-10-12T09:27:14.665Z,22.60
2022-10-12T09:30:00.392Z,25.00
2022-10-12T09:32:41.205Z,27.70
2022-10-12T09:35:14.823Z,29.40
2022-10-12T09:37:55.079Z,27.50
2022-10-12T09:40:34.312Z,36.70
2022-10-12T09:43:25.191Z,26.10
2022-10-12T09:45:54.577Z,27.90
2022-10-12T09:48:33.002Z,28.10
2022-10-12T09:51:06.961Z,31.80
2022-10-12T09:53:55.327Z,29.80
2022-10-12T09:56:34.926Z,31.20
2022-10-12T09:59:32.634Z,31.00
2022-10-12T10:02:10.932Z,23.80
2022-10-12T10:04:55.384Z,24.60
2022-10-12T10:07:38.562Z,22.40
2022-10-12T10:10:12.157Z,29.20
2022-10-12T10:12:59.745Z,24.70
2022-10-12T10:15:30.287Z,20.70
2022-10-12T10:18:03.766Z,21.00
2022-10-12T10:20:49.811Z,20.10
2022-10-12T10:23:46.444Z,16.40
2022-10-12T10:26:23.323Z,24.30
2022-10-12T10:29:32.708Z,19.00
2022-10-12T10:32:29.195Z,18.80
2022-10-12T10:35:18.002Z,18.90
2022-10-12T10:37:57.778Z,17.30
2022-10-12T10:40:30.961Z,18.10
2022-10-12T10:43:15.893Z,16.30
2022-10-12T10:46:02.653Z,17.70
2022-10-12T10:49:06.424Z,17.70
2022-10-12T10:51:51.781Z,18.60
2022-10-12T10:54:23.789Z,14.60
2022-10-12T10:56:59.240Z,17.90
2022-10-12T11:00:33.457Z,15.70
2022-10-12T11:03:31.236Z,10.90
2022-10-12T11:06:20.960Z,15.70
2022-10-12T11:08:56.356Z,13.10
2022-10-12T11:11:33.118Z,18.00
2022-10-12T11:14:21.919Z,18.20
2022-10-12T11:17:08.386Z,15.30
2022-10-12T11:20:19.890Z,13.40
2022-10-12T11:23:04.817Z,13.40
2022-10-12T11:25:49.048Z,13.50
2022-10-12T11:28:21.602Z,18.00
2022-10-12T11:30:53.463Z,15.00
2022-10-12T11:33:39.880Z,10.60
2022-10-12T11:36:20.325Z,13.60
2022-10-12T11:39:05.844Z,15.70
2022-10-12T11:42:17.044Z,14.30
2022-10-12T11:44:47.882Z,13.10
2022-10-12T11:47:47.433Z,11.40
2022-10-12T11:50:36.405Z,12.90
2022-10-12T11:53:41.341Z,15.40
2022-10-12T11:56:32.860Z,11.30
2022-10-12T12:02:25.543Z,10.90
2022-10-12T12:04:56.910Z,12.30
2022-10-12T12:07:54.602Z,14.70
2022-10-12T12:15:02.237Z,8.40
2022-10-12T12:17:45.488Z,11.70
2022-10-12T12:20:48.577Z,12.00
2022-10-12T12:23:32.205Z,14.50
2022-10-12T12:26:16.881Z,9.20
2022-10-12T12:28:51.841Z,15.60
2022-10-12T12:31:25.567Z,11.40
2022-10-12T12:34:15.665Z,8.50
2022-10-12T12:36:51.767Z,8.70
2022-10-12T12:39:33.468Z,13.20
2022-10-12T12:42:09.160Z,7.50
2022-10-12T12:44:54.881Z,9.10
2022-10-12T12:47:46.865Z,13.00
2022-10-12T12:50:40.171Z,8.30
2022-10-12T12:53:29.393Z,7.80
2022-10-12T12:56:36.309Z,12.90
2022-10-12T12:59:42.838Z,12.00
2022-10-12T13:03:10.072Z,6.60
2022-10-12T13:06:04.456Z,11.50
2022-10-12T13:09:14.682Z,10.00
2022-10-12T13:15:24.949Z,10.20
2022-10-12T13:18:48.817Z,8.40
2022-10-12T13:21:26.873Z,9.10
2022-10-12T13:24:19.682Z,8.60
2022-10-12T13:26:54.926Z,9.30
2022-10-12T13:29:44.839Z,11.70
2022-10-12T13:32:44.440Z,9.20
2022-10-12T13:35:33.869Z,6.40
2022-10-12T13:38:14.168Z,8.40
2022-10-12T13:40:53.550Z,9.40
2022-10-12T13:43:48.838Z,7.80
2022-10-12T13:46:46.776Z,9.30
2022-10-12T13:49:19.913Z,7.80
2022-10-12T13:52:21.944Z,6.90
2022-10-12T13:54:51.312Z,9.80
2022-10-12T13:57:43.676Z,8.20
2022-10-12T14:00:16.984Z,10.40
2022-10-12T14:03:03.731Z,9.50
2022-10-12T14:05:42.407Z,7.00
2022-10-12T14:08:19.559Z,8.00
2022-10-12T14:10:49.711Z,8.60
2022-10-12T14:13:37.303Z,7.30
2022-10-12T14:16:10.175Z,10.10
2022-10-12T14:18:47.453Z,8.90
2022-10-12T14:21:32.081Z,9.40
2022-10-12T14:24:10.670Z,5.80
2022-10-12T14:26:51.975Z,6.90
2022-10-12T14:29:42.113Z,10.00
2022-10-12T14:32:13.558Z,13.80
2022-10-12T14:35:19.009Z,10.40
2022-10-12T14:37:49.742Z,6.00
2022-10-12T14:40:42.077Z,6.10
2022-10-12T14:43:14.236Z,18.60
2022-10-12T14:45:43.211Z,10.50
2022-10-12T14:48:24.789Z,7.80
2022-10-12T14:50:54.562Z,8.40
2022-10-12T14:53:31.789Z,10.00
2022-10-12T14:56:00.750Z,10.80
2022-10-12T14:58:29.998Z,6.70
2022-10-12T15:00:59.034Z,8.30
2022-10-12T15:03:28.191Z,8.60
2022-10-12T15:05:57.176Z,8.30
2022-10-12T15:08:26.022Z,9.90
2022-10-12T15:10:54.855Z,7.20
2022-10-12T15:13:23.694Z,7.30
2022-10-12T15:15:55.773Z,6.10
2022-10-12T15:18:29.353Z,8.30
2022-10-12T15:20:59.733Z,6.20
2022-10-12T15:26:02.078Z,6.00
2022-10-12T15:28:31.094Z,9.90
2022-10-12T15:31:17.158Z,8.40
2022-10-12T15:33:47.121Z,9.80
2022-10-12T15:36:17.599Z,9.70
2022-10-12T15:38:48.300Z,14.40
2022-10-12T15:41:20.858Z,18.00
2022-10-12T15:43:50.298Z,24.70
2022-10-12T15:46:23.920Z,25.70
2022-10-12T15:48:54.015Z,35.40
2022-10-12T15:51:25.430Z,38.10
2022-10-12T15:53:55.249Z,39.40
2022-10-12T15:56:24.381Z,42.40
2022-10-12T15:58:54.033Z,31.40
2022-10-12T16:01:23.127Z,35.70
2022-10-12T16:03:53.789Z,38.80
2022-10-12T16:06:23.286Z,37.20
2022-10-12T16:08:52.286Z,38.10
2022-10-12T16:11:23.216Z,34.20
2022-10-12T16:13:56.524Z,40.70
2022-10-12T16:16:25.882Z,35.70
2022-10-12T16:18:54.759Z,30.50
2022-10-12T16:21:29.912Z,30.20
2022-10-12T16:24:02.504Z,30.40
2022-10-12T16:26:47.850Z,35.40
2022-10-12T16:29:23.917Z,29.00
2022-10-12T16:32:02.266Z,37.40
2022-10-12T16:34:44.586Z,33.50
2022-10-12T16:37:17.759Z,39.80
2022-10-12T16:39:52.692Z,37.60
2022-10-12T16:42:23.642Z,45.40
2022-10-12T16:44:53.225Z,46.20
2022-10-12T16:47:33.291Z,41.00
2022-10-12T16:50:03.020Z,46.80
2022-10-12T16:52:35.409Z,41.00
2022-10-12T16:55:09.123Z,38.90
2022-10-12T16:57:40.550Z,54.10
2022-10-12T17:00:20.344Z,47.20
2022-10-12T17:03:11.782Z,58.70
2022-10-12T17:06:10.631Z,55.60
2022-10-12T17:08:47.157Z,68.20
2022-10-12T17:11:18.419Z,71.70
2022-10-12T17:13:52.553Z,64.70
2022-10-12T17:16:41.107Z,87.50
2022-10-12T17:20:09.636Z,83.20
2022-10-12T17:23:19.914Z,65.30
2022-10-12T17:26:07.142Z,56.20
2022-10-12T17:28:49.260Z,67.20
2022-10-12T17:31:30.821Z,55.70
2022-10-12T17:37:26.073Z,87.40
2022-10-12T17:40:50.197Z,79.80
2022-10-12T17:47:59.740Z,97.00
2022-10-12T17:58:33.025Z,110.30
2022-10-12T18:01:33.367Z,107.30
2022-10-12T18:04:04.317Z,105.30
2022-10-12T18:06:34.825Z,111.60
2022-10-12T18:09:06.160Z,101.30
2022-10-12T18:11:36.012Z,111.40
2022-10-12T18:14:08.981Z,111.60
2022-10-12T18:16:37.989Z,109.60
2022-10-12T18:19:12.040Z,116.30
2022-10-12T18:21:40.885Z,114.30
2022-10-12T18:24:16.456Z,115.50
2022-10-12T18:26:47.544Z,145.10
2022-10-12T18:29:19.297Z,169.90
2022-10-12T18:31:48.113Z,192.70
2022-10-12T18:34:16.914Z,149.20
2022-10-12T18:36:45.806Z,148.80
2022-10-12T18:39:15.324Z,166.10
2022-10-12T18:41:44.137Z,189.40
2022-10-12T18:44:15.054Z,187.40
2022-10-12T18:46:44.474Z,171.10
2022-10-12T18:49:14.148Z,168.20
2022-10-12T18:51:47.450Z,175.70
2022-10-12T18:54:17.231Z,153.10
2022-10-12T18:56:46.017Z,150.20
2022-10-12T18:59:19.465Z,152.10
2022-10-12T19:01:48.213Z,168.10
2022-10-12T19:04:17.135Z,181.10
2022-10-12T19:06:45.847Z,178.30
2022-10-12T19:09:14.842Z,205.90
2022-10-12T19:11:43.623Z,238.80
2022-10-12T19:14:15.087Z,240.70
2022-10-12T19:16:44.634Z,230.20
2022-10-12T19:19:20.919Z,223.30
2022-10-12T19:21:52.374Z,236.10
2022-10-12T19:24:22.114Z,239.10
2022-10-12T19:26:51.532Z,245.30
2022-10-12T19:29:20.312Z,240.00
2022-10-12T19:31:50.572Z,235.80
2022-10-12T19:34:21.262Z,247.70
2022-10-12T19:36:50.742Z,241.30
2022-10-12T19:39:23.101Z,266.40
2022-10-12T19:41:52.677Z,250.50
2022-10-12T19:44:21.657Z,268.20
2022-10-12T19:46:53.555Z,239.00
2022-10-12T19:49:22.367Z,241.00
2022-10-12T19:51:51.158Z,227.60
2022-10-12T19:54:20.438Z,216.10
2022-10-12T19:56:49.701Z,247.20
2022-10-12T19:59:18.445Z,230.80
2022-10-12T20:01:48.337Z,210.30
2022-10-12T20:04:17.703Z,206.60
2022-10-12T20:06:46.524Z,189.60
2022-10-12T20:09:15.458Z,191.00
2022-10-12T20:11:44.298Z,200.50
2022-10-12T20:14:13.180Z,218.60
2022-10-12T20:16:41.969Z,168.80
2022-10-12T20:19:10.745Z,178.50
2022-10-12T20:21:39.539Z,183.50
2022-10-12T20:24:09.871Z,191.60
2022-10-12T20:26:39.015Z,189.10
2022-10-12T20:29:07.950Z,190.90
2022-10-12T20:31:36.866Z,167.80
2022-10-12T20:34:06.709Z,169.80
2022-10-12T20:36:35.591Z,159.10
2022-10-12T20:39:04.393Z,148.70
2022-10-12T20:41:33.365Z,154.20
2022-10-12T20:44:02.804Z,156.30
2022-10-12T20:46:31.662Z,159.00
2022-10-12T20:49:03.765Z,150.70
2022-10-12T20:51:36.996Z,163.10
2022-10-12T20:54:08.919Z,147.80
2022-10-12T20:56:41.552Z,146.20
2022-10-12T20:59:11.441Z,145.00
2022-10-12T21:01:40.147Z,164.00
2022-10-12T21:04:10.356Z,162.10
2022-10-12T21:06:41.446Z,161.00
2022-10-12T21:09:14.839Z,156.90
2022-10-12T21:11:43.925Z,161.50
2022-10-12T21:14:13.950Z,169.10
2022-10-12T21:16:42.702Z,164.60
2022-10-12T21:19:16.257Z,170.80
2022-10-12T21:21:46.752Z,167.30
2022-10-12T21:24:15.612Z,169.00
2022-10-12T21:26:44.915Z,171.40
2022-10-12T21:29:14.076Z,172.60
2022-10-12T21:31:42.789Z,168.70
2022-10-12T21:34:13.687Z,159.90
2022-10-12T21:36:42.443Z,173.30
2022-10-12T21:39:14.320Z,162.90
2022-10-12T21:41:43.720Z,169.90
2022-10-12T21:44:12.719Z,175.70
2022-10-12T21:46:41.495Z,166.90
2022-10-12T21:49:13.016Z,155.10
2022-10-12T21:51:57.355Z,156.90
2022-10-12T21:54:27.958Z,150.20
2022-10-12T21:56:56.667Z,159.80
2022-10-12T21:59:26.768Z,145.10
2022-10-12T22:01:55.442Z,144.70
2022-10-12T22:04:24.348Z,140.50
2022-10-12T22:06:55.111Z,140.30
2022-10-12T22:09:27.177Z,153.80
2022-10-12T22:11:56.172Z,144.50
2022-10-12T22:14:24.902Z,149.20
2022-10-12T22:16:53.695Z,147.00
2022-10-12T22:19:24.861Z,133.00
2022-10-12T22:21:55.535Z,136.50
2022-10-12T22:24:36.116Z,129.50
2022-10-12T22:27:04.824Z,122.40
2022-10-12T22:29:33.713Z,125.90
2022-10-12T22:32:04.084Z,123.20
2022-10-12T22:34:32.835Z,118.60
2022-10-12T22:37:01.593Z,118.80
2022-10-12T22:39:30.472Z,123.60
2022-10-12T22:41:59.149Z,122.50
2022-10-12T22:44:27.838Z,117.30
2022-10-12T22:46:57.374Z,120.10
2022-10-12T22:49:26.392Z,110.80
2022-10-12T22:51:55.063Z,122.20
2022-10-12T22:54:23.836Z,111.70
2022-10-12T22:56:53.027Z,118.40
2022-10-12T22:59:21.703Z,116.30
2022-10-12T23:01:50.388Z,113.30
2022-10-12T23:04:19.080Z,117.60
2022-10-12T23:06:47.963Z,104.00
2022-10-12T23:09:16.676Z,115.20
2022-10-12T23:11:45.445Z,114.90
2022-10-12T23:14:14.141Z,113.00
2022-10-12T23:16:42.794Z,109.10
2022-10-12T23:19:11.537Z,105.70
2022-10-12T23:21:40.384Z,115.10
2022-10-12T23:24:10.476Z,108.60
2022-10-12T23:26:39.120Z,107.50
2022-10-12T23:29:07.812Z,103.70
2022-10-12T23:31:36.974Z,107.80
2022-10-12T23:34:06.591Z,112.40
2022-10-12T23:36:35.620Z,111.70
2022-10-12T23:39:05.685Z,98.10
2022-10-12T23:41:34.780Z,106.20
2022-10-12T23:44:03.924Z,118.40
2022-10-12T23:46:32.798Z,110.70
2022-10-12T23:49:01.530Z,105.50
2022-10-12T23:51:30.418Z,108.20
2022-10-12T23:53:59.227Z,108.60
2022-10-12T23:56:27.959Z,107.60
2022-10-12T23:58:57.244Z,103.30
